Time;durP1;ratioP1;P1;durP2;ratioP2;P2;SDS_P1;SDS_P2;PMS_P1;PMS_P2;Temp;Humidity;BMP_temperature;BMP_pressure;BME280_temperature;BME280_humidity;BME280_pressure;Samples;Min_cycle;Max_cycle;Signal;HPM_P1;HPM_P2
2022/08/25 00:01:31;;;;;;;;;16.75;13.75;;;;;27.23;40.42;100970.47;5017946;28;45445;-53
2022/08/25 00:03:58;;;;;;;;;17.50;15.25;;;;;27.22;40.41;100969.63;5030250;28;45694;-52
2022/08/25 00:06:23;;;;;;;;;15.50;15.00;;;;;27.23;40.20;100970.47;5035511;28;46178;-52
2022/08/25 00:08:49;;;;;;;;;14.00;12.00;;;;;27.22;40.36;100971.44;5023665;28;45468;-52
2022/08/25 00:11:20;;;;;;;;;16.50;16.00;;;;;27.22;40.43;100974.09;5014684;28;45407;-51
2022/08/25 00:13:51;;;;;;;;;17.50;14.25;;;;;27.22;40.61;100972.28;5014977;28;45454;-52
2022/08/25 00:16:18;;;;;;;;;12.25;10.25;;;;;27.22;40.45;100969.63;5014306;28;47055;-54
2022/08/25 00:18:47;;;;;;;;;14.75;13.75;;;;;27.22;40.43;100976.75;5023660;28;45697;-52
2022/08/25 00:21:13;;;;;;;;;13.00;13.00;;;;;27.21;40.57;100967.06;5034333;28;45514;-53
2022/08/25 00:23:39;;;;;;;;;14.50;12.25;;;;;27.21;40.71;100962.63;5034450;28;45331;-53
2022/08/25 00:26:06;;;;;;;;;16.50;15.25;;;;;27.21;40.20;100961.75;5033713;28;45542;-55
2022/08/25 00:28:32;;;;;;;;;15.50;12.75;;;;;27.20;40.34;100958.25;5026253;28;45406;-54
2022/08/25 00:31:00;;;;;;;;;14.00;14.00;;;;;27.17;40.41;100954.00;5014066;28;45341;-53
2022/08/25 00:33:26;;;;;;;;;14.25;14.25;;;;;27.18;40.33;100957.53;5015156;28;45270;-53
2022/08/25 00:35:52;;;;;;;;;15.00;15.00;;;;;27.17;40.52;100947.84;5014919;28;45324;-51
2022/08/25 00:38:18;;;;;;;;;16.25;14.75;;;;;27.17;40.66;100955.84;5018696;28;45526;-52
2022/08/25 00:40:44;;;;;;;;;20.00;15.00;;;;;27.16;40.53;100949.69;5033957;28;45328;-53
2022/08/25 00:43:10;;;;;;;;;16.75;14.50;;;;;27.16;40.55;100948.81;5033625;28;45546;-53
2022/08/25 00:45:36;;;;;;;;;16.00;16.00;;;;;27.14;40.37;100943.66;5029442;28;45494;-50
2022/08/25 00:48:03;;;;;;;;;18.00;13.00;;;;;27.14;40.36;100946.31;5012425;28;45621;-54
2022/08/25 00:50:30;;;;;;;;;16.00;16.00;;;;;27.14;40.16;100943.66;5013906;28;45321;-52
2022/08/25 00:53:01;;;;;;;;;16.75;15.25;;;;;27.12;40.04;100937.59;5014868;28;45274;-51
2022/08/25 00:55:38;;;;;;;;;19.25;15.50;;;;;27.11;40.26;100935.06;5015999;28;46158;-50
2022/08/25 00:58:12;;;;;;;;;18.25;16.75;;;;;27.10;40.66;100931.56;5032964;28;45822;-53
2022/08/25 01:00:41;;;;;;;;;15.50;15.00;;;;;27.09;40.78;100934.34;5033597;28;45279;-55
2022/08/25 01:03:08;;;;;;;;;17.75;16.00;;;;;27.09;40.36;100929.03;5032141;28;45594;-53
2022/08/25 01:05:34;;;;;;;;;18.00;18.00;;;;;27.07;40.49;100934.47;5030582;28;46116;-54
2022/08/25 01:08:02;;;;;;;;;16.50;14.75;;;;;27.07;40.37;100942.44;5013190;28;45800;-53
2022/08/25 01:10:28;;;;;;;;;20.00;16.50;;;;;27.06;40.43;100943.44;5013501;28;45319;-51
2022/08/25 01:13:00;;;;;;;;;17.00;15.50;;;;;27.06;40.39;100942.56;5014646;28;45198;-54
2022/08/25 01:15:27;;;;;;;;;13.50;13.00;;;;;27.04;40.33;100934.72;5014987;28;46473;-50
2022/08/25 01:17:56;;;;;;;;;14.25;14.00;;;;;27.04;40.16;100929.41;5027886;28;45293;-52
2022/08/25 01:20:26;;;;;;;;;15.25;15.25;;;;;27.05;40.13;100940.88;5013671;28;45311;-49
2022/08/25 01:22:52;;;;;;;;;15.25;14.25;;;;;27.05;40.40;100941.75;5014339;28;45396;-52
2022/08/25 01:25:28;;;;;;;;;15.00;15.00;;;;;27.05;39.94;100940.88;5012895;28;47278;-53
2022/08/25 01:27:53;;;;;;;;;12.75;12.75;;;;;27.04;39.60;100942.72;5013520;28;45351;-53
2022/08/25 01:30:19;;;;;;;;;16.25;12.50;;;;;27.05;39.81;100941.75;5012984;28;45269;-53
2022/08/25 01:32:45;;;;;;;;;12.75;12.75;;;;;27.06;39.67;100938.13;5013362;28;45317;-52
2022/08/25 01:35:10;;;;;;;;;11.50;11.00;;;;;27.05;39.48;100935.56;5012871;28;45466;-54
2022/08/25 01:37:35;;;;;;;;;14.50;13.75;;;;;27.05;39.45;100933.75;5029806;28;45323;-53
2022/08/25 01:40:01;;;;;;;;;14.50;12.25;;;;;27.05;38.84;100931.09;5023751;28;45174;-53
2022/08/25 01:42:57;;;;;;;;;11.75;10.25;;;;;27.06;39.07;100942.56;5013717;28;45675;-52
2022/08/25 01:45:23;;;;;;;;;13.75;13.00;;;;;27.05;38.85;100944.41;5013437;28;47439;-54
2022/08/25 01:47:49;;;;;;;;;11.75;11.75;;;;;27.06;38.99;100939.91;5032626;28;45371;-52
2022/08/25 01:50:14;;;;;;;;;13.50;12.25;;;;;27.05;38.99;100936.44;5032583;28;45268;-55
2022/08/25 01:52:50;;;;;;;;;10.50;10.50;;;;;27.05;39.03;100931.09;5032889;28;45570;-51
2022/08/25 01:55:16;;;;;;;;;14.00;12.25;;;;;27.04;39.06;100918.78;5032271;28;46332;-54
2022/08/25 01:57:41;;;;;;;;;12.00;12.00;;;;;27.03;38.96;100927.72;5012153;28;45427;-53
2022/08/25 02:00:11;;;;;;;;;11.25;10.25;;;;;27.04;39.16;100931.22;5012824;28;45323;-54
2022/08/25 02:02:38;;;;;;;;;9.75;9.75;;;;;27.04;38.61;100928.56;5013003;28;45957;-53
2022/08/25 02:05:04;;;;;;;;;12.50;11.25;;;;;27.04;39.03;100917.91;5028443;28;46361;-52
2022/08/25 02:07:29;;;;;;;;;14.00;12.25;;;;;27.04;38.96;100913.44;5012685;28;45398;-52
2022/08/25 02:09:55;;;;;;;;;11.50;11.50;;;;;27.03;38.98;100914.41;5013519;28;45458;-54
2022/08/25 02:12:20;;;;;;;;;13.25;12.25;;;;;27.02;38.72;100899.44;5012362;28;45305;-53
2022/08/25 02:14:45;;;;;;;;;15.00;12.00;;;;;27.03;38.73;100906.44;5012344;28;45454;-54
2022/08/25 02:17:11;;;;;;;;;13.50;13.25;;;;;27.02;38.69;100899.44;5030157;28;47691;-55
2022/08/25 02:19:36;;;;;;;;;12.00;12.00;;;;;27.03;38.99;100897.59;5032829;28;45363;-51
2022/08/25 02:22:02;;;;;;;;;14.00;13.00;;;;;27.01;38.95;100897.72;5032385;28;45453;-52
2022/08/25 02:24:27;;;;;;;;;12.00;11.75;;;;;27.02;38.75;100899.44;5032080;28;46281;-54
2022/08/25 02:26:53;;;;;;;;;11.50;11.00;;;;;27.01;39.30;100903.06;5016919;28;45246;-53
2022/08/25 02:29:18;;;;;;;;;11.00;11.00;;;;;27.01;39.10;100900.41;5012184;28;45489;-50
2022/08/25 02:31:43;;;;;;;;;14.50;13.50;;;;;27.01;39.06;100884.44;5012524;28;45469;-55
2022/08/25 02:34:09;;;;;;;;;13.00;12.00;;;;;27.02;39.02;100883.47;5020404;28;45419;-52
2022/08/25 02:36:36;;;;;;;;;11.00;11.00;;;;;27.00;39.12;100882.75;5014219;28;45342;-55
2022/08/25 02:39:03;;;;;;;;;11.75;10.50;;;;;26.99;39.59;100879.25;5032028;28;45209;-53
2022/08/25 02:41:29;;;;;;;;;11.75;11.75;;;;;26.99;39.17;100878.41;5032011;28;45609;-53
2022/08/25 02:43:54;;;;;;;;;12.25;12.25;;;;;26.98;39.20;100876.69;5026772;28;46487;-54
2022/08/25 02:46:21;;;;;;;;;11.75;11.75;;;;;26.99;39.51;100878.41;5011965;28;45392;-54
2022/08/25 02:48:47;;;;;;;;;13.50;11.25;;;;;26.97;39.25;100875.00;5012394;28;45456;-52
2022/08/25 02:51:13;;;;;;;;;13.25;12.25;;;;;26.96;39.62;100879.50;5012091;28;45702;-55
2022/08/25 02:53:40;;;;;;;;;13.00;11.50;;;;;26.95;39.31;100864.50;5014972;28;46137;-53
2022/08/25 02:56:08;;;;;;;;;13.75;11.25;;;;;26.94;39.38;100860.16;5031766;28;45762;-53
2022/08/25 02:58:34;;;;;;;;;11.75;11.75;;;;;26.94;39.47;100854.00;5031986;28;45335;-51
2022/08/25 03:00:59;;;;;;;;;11.75;11.75;;;;;26.94;39.13;100859.34;5023838;28;45386;-54
2022/08/25 03:03:25;;;;;;;;;11.00;11.00;;;;;26.92;39.38;100861.25;5012345;28;47204;-53
2022/08/25 03:05:50;;;;;;;;;12.25;12.00;;;;;26.92;39.23;100862.09;5031801;28;45423;-53
2022/08/25 03:08:16;;;;;;;;;11.00;10.75;;;;;26.92;39.46;100861.25;5031563;28;45470;-52
2022/08/25 03:10:41;;;;;;;;;11.75;11.00;;;;;26.92;39.09;100864.75;5034761;28;45269;-51
2022/08/25 03:13:07;;;;;;;;;15.25;11.75;;;;;26.91;38.77;100870.22;5017513;28;45563;-53
2022/08/25 03:15:32;;;;;;;;;11.00;11.00;;;;;26.90;39.18;100868.53;5015277;28;45306;-52
2022/08/25 03:17:58;;;;;;;;;10.25;10.25;;;;;26.89;38.93;100866.81;5014983;28;45324;-52
2022/08/25 03:20:26;;;;;;;;;14.50;13.00;;;;;26.89;39.05;100861.50;5016414;28;45542;-52
2022/08/25 03:22:52;;;;;;;;;10.00;10.00;;;;;26.88;39.24;100854.50;5029298;28;46362;-55
2022/08/25 03:28:03;;;;;;;;;11.50;10.75;;;;;26.88;38.88;100847.38;5034175;28;45426;-53
2022/08/25 03:30:29;;;;;;;;;12.50;11.50;;;;;26.88;39.35;100847.38;5035250;28;45525;-52
2022/08/25 03:32:55;;;;;;;;;12.75;11.25;;;;;26.89;39.52;100842.91;5021522;28;46973;-51
2022/08/25 03:35:21;;;;;;;;;12.25;12.25;;;;;26.87;39.37;100837.72;5014281;28;45479;-54
2022/08/25 03:37:46;;;;;;;;;13.50;13.00;;;;;26.87;39.35;100823.56;5015248;28;45380;-54
2022/08/25 03:40:14;;;;;;;;;14.00;10.25;;;;;26.87;39.01;100819.09;5015082;28;45690;-52
2022/08/25 03:42:41;;;;;;;;;10.50;9.00;;;;;26.86;39.25;100814.75;5032811;28;45522;-51
2022/08/25 03:45:10;;;;;;;;;10.50;10.50;;;;;26.84;38.93;100817.50;5034445;28;45663;-52
2022/08/25 03:47:35;;;;;;;;;12.25;10.50;;;;;26.84;38.78;100812.19;5034802;28;45457;-53
2022/08/25 03:50:01;;;;;;;;;10.00;10.00;;;;;26.83;38.37;100813.19;5034591;28;45321;-53
2022/08/25 03:52:27;;;;;;;;;11.00;11.00;;;;;26.82;38.54;100808.84;5032821;28;45403;-55
2022/08/25 03:54:52;;;;;;;;;10.25;10.25;;;;;26.81;38.52;100816.94;5035587;28;45319;-54
2022/08/25 03:57:19;;;;;;;;;13.50;13.50;;;;;26.80;38.53;100813.44;5033416;28;45335;-52
2022/08/25 03:59:44;;;;;;;;;12.00;12.00;;;;;26.80;38.27;100810.78;5034740;28;45234;-54
2022/08/25 04:02:10;;;;;;;;;10.25;10.25;;;;;26.80;38.90;100816.09;5029831;28;45803;-53
2022/08/25 04:04:35;;;;;;;;;10.50;10.50;;;;;26.79;38.48;100827.69;5013964;28;59211;-53
2022/08/25 04:07:01;;;;;;;;;7.25;7.25;;;;;26.79;39.03;100838.34;5014399;28;45213;-53
2022/08/25 04:09:27;;;;;;;;;11.25;11.25;;;;;26.80;38.73;100839.16;5015601;28;45527;-52
2022/08/25 04:11:52;;;;;;;;;11.00;11.00;;;;;26.79;38.95;100829.53;5016139;28;46334;-52
2022/08/25 04:14:18;;;;;;;;;11.50;11.50;;;;;26.79;39.17;100835.69;5033705;28;45444;-54
2022/08/25 04:16:44;;;;;;;;;10.25;10.25;;;;;26.79;38.96;100833.03;5034322;28;45421;-52
2022/08/25 04:19:10;;;;;;;;;10.75;10.75;;;;;26.79;38.82;100838.34;5034108;28;45387;-52
2022/08/25 04:21:37;;;;;;;;;13.75;11.50;;;;;26.79;38.88;100829.53;5032968;28;46025;-50
2022/08/25 04:24:04;;;;;;;;;12.00;11.50;;;;;26.79;38.79;100832.19;5014690;28;45704;-53
2022/08/25 04:26:34;;;;;;;;;12.25;12.25;;;;;26.79;38.97;100841.00;5013022;28;45217;-53
2022/08/25 04:29:02;;;;;;;;;12.00;12.00;;;;;26.78;39.16;100849.13;5012859;28;45508;-50
2022/08/25 04:31:28;;;;;;;;;11.25;11.25;;;;;26.77;39.06;100842.91;5024655;28;46273;-53
2022/08/25 04:33:54;;;;;;;;;11.25;11.25;;;;;26.77;38.85;100842.91;5034763;28;45255;-53
2022/08/25 04:36:21;;;;;;;;;10.25;10.00;;;;;26.77;39.12;100842.91;5033981;28;45265;-53
2022/08/25 04:38:48;;;;;;;;;10.00;10.00;;;;;26.76;38.71;100841.22;5034267;28;45624;-49
2022/08/25 04:41:15;;;;;;;;;11.25;10.00;;;;;26.76;39.20;100845.69;5024764;28;46170;-51
2022/08/25 04:43:42;;;;;;;;;9.00;9.00;;;;;26.77;38.63;100847.38;5014090;28;45418;-49
2022/08/25 04:46:14;;;;;;;;;15.00;11.75;;;;;26.77;39.18;100850.88;5013633;28;45250;-49
2022/08/25 04:48:40;;;;;;;;;13.00;11.00;;;;;26.77;39.04;100856.19;5014196;28;45388;-53
2022/08/25 04:51:09;;;;;;;;;11.50;11.50;;;;;26.77;39.03;100858.84;5020161;28;46018;-55
2022/08/25 04:53:35;;;;;;;;;10.75;10.75;;;;;26.78;39.28;100865.06;5033611;28;45668;-52
2022/08/25 04:56:00;;;;;;;;;13.00;11.50;;;;;26.78;38.64;100870.38;5033464;28;45386;-52
2022/08/25 04:58:26;;;;;;;;;12.25;11.00;;;;;26.76;38.79;100867.81;5034787;28;45529;-54
2022/08/25 05:00:52;;;;;;;;;12.00;11.00;;;;;26.76;38.53;100856.34;5015533;28;46467;-53
2022/08/25 05:03:17;;;;;;;;;12.25;12.00;;;;;26.77;38.85;100868.66;5013391;28;45441;-51
2022/08/25 05:05:43;;;;;;;;;11.75;11.75;;;;;26.77;38.63;100872.16;5013843;28;45475;-50
2022/08/25 05:08:09;;;;;;;;;13.00;11.50;;;;;26.76;39.02;100881.09;5013555;28;45601;-52
2022/08/25 05:10:39;;;;;;;;;14.50;12.25;;;;;26.76;38.88;100882.91;5028773;28;46486;-51
2022/08/25 05:13:04;;;;;;;;;11.25;11.25;;;;;26.75;38.56;100887.38;5032800;28;45241;-50
2022/08/25 05:18:16;;;;;;;;;13.00;13.00;;;;;26.76;38.91;100896.22;5033483;28;45232;-52
2022/08/25 05:20:41;;;;;;;;;12.75;12.75;;;;;26.74;38.79;100898.97;5016761;28;46264;-48
2022/08/25 05:23:09;;;;;;;;;10.00;9.50;;;;;26.74;38.99;100901.63;5015437;28;45355;-53
2022/08/25 05:25:35;;;;;;;;;13.00;13.00;;;;;26.74;38.91;100896.31;5033571;28;45360;-49
2022/08/25 05:28:00;;;;;;;;;12.00;11.75;;;;;26.72;38.91;100898.28;5033241;28;45371;-50
2022/08/25 05:30:27;;;;;;;;;14.25;12.75;;;;;26.73;38.91;100899.13;5034037;28;45423;-52
2022/08/25 05:32:52;;;;;;;;;14.25;14.25;;;;;26.71;38.73;100909.88;5019867;28;45336;-51
2022/08/25 05:35:19;;;;;;;;;10.50;10.50;;;;;26.70;39.17;100903.72;5013258;28;45275;-51
2022/08/25 05:37:44;;;;;;;;;13.00;12.00;;;;;26.69;39.15;100901.19;5013608;28;45312;-51
2022/08/25 05:40:10;;;;;;;;;10.50;10.50;;;;;26.69;39.22;100909.16;5012979;28;45592;-53
2022/08/25 05:42:36;;;;;;;;;12.75;12.75;;;;;26.68;38.79;100899.50;5023358;28;45340;-53
2022/08/25 05:45:02;;;;;;;;;10.50;10.00;;;;;26.68;39.16;100897.66;5033238;28;45580;-51
2022/08/25 05:47:28;;;;;;;;;15.25;14.50;;;;;26.67;39.32;100903.13;5033291;28;45426;-52
2022/08/25 05:49:53;;;;;;;;;12.50;12.00;;;;;26.67;39.03;100906.63;5015832;28;48351;-53
2022/08/25 05:52:19;;;;;;;;;12.25;12.25;;;;;26.67;39.19;100901.31;5023680;28;45407;-52
2022/08/25 05:54:44;;;;;;;;;14.75;11.75;;;;;26.67;39.21;100897.81;5013200;28;45424;-49
2022/08/25 05:57:09;;;;;;;;;13.75;12.00;;;;;26.67;39.32;100892.47;5013463;28;45306;-51
2022/08/25 05:59:34;;;;;;;;;13.75;13.75;;;;;26.67;39.40;100897.81;5012876;28;45384;-54
2022/08/25 06:04:44;;;;;;;;;16.00;15.00;;;;;26.67;39.08;100900.47;5033210;28;45492;-49
2022/08/25 06:07:09;;;;;;;;;9.00;9.00;;;;;26.67;39.19;100896.00;5032877;28;45518;-50
2022/08/25 06:09:40;;;;;;;;;13.00;13.00;;;;;26.68;39.38;100895.00;5032572;28;46119;-51
2022/08/25 06:12:06;;;;;;;;;13.25;11.25;;;;;26.69;39.34;100893.22;5025636;28;45834;-54
2022/08/25 06:14:32;;;;;;;;;14.00;13.00;;;;;26.69;39.26;100893.22;5013222;28;45325;-50
2022/08/25 06:16:59;;;;;;;;;11.75;11.75;;;;;26.68;39.65;100891.50;5012873;28;45927;-51
2022/08/25 06:19:25;;;;;;;;;14.00;14.00;;;;;26.69;39.20;100893.22;5013470;28;45465;-52
2022/08/25 06:21:59;;;;;;;;;15.25;13.25;;;;;26.69;39.22;100890.56;5016709;28;45550;-53
2022/08/25 06:24:26;;;;;;;;;15.50;13.25;;;;;26.70;39.14;100894.91;5033714;28;45410;-53
2022/08/25 06:26:52;;;;;;;;;15.75;14.50;;;;;26.70;39.30;100889.59;5032542;28;45367;-52
2022/08/25 06:29:18;;;;;;;;;15.75;12.25;;;;;26.71;38.98;100885.97;5032180;28;45236;-48
2022/08/25 06:31:45;;;;;;;;;13.50;12.50;;;;;26.70;38.70;100886.94;5029962;28;45229;-50
2022/08/25 06:34:11;;;;;;;;;12.75;11.25;;;;;26.70;38.69;100889.59;5012529;28;45345;-52
2022/08/25 06:36:37;;;;;;;;;13.75;13.00;;;;;26.70;38.50;100886.94;5012830;28;45293;-50
2022/08/25 06:39:03;;;;;;;;;13.50;13.00;;;;;26.71;37.62;100893.94;5012376;28;45470;-52
2022/08/25 06:41:30;;;;;;;;;12.25;11.00;;;;;26.69;38.27;100898.53;5010948;28;46316;-49
2022/08/25 06:43:57;;;;;;;;;14.00;11.50;;;;;26.69;37.48;100901.19;5014426;28;45492;-49
2022/08/25 06:46:25;;;;;;;;;11.50;11.50;;;;;26.69;37.63;100888.72;5017276;28;45506;-49
2022/08/25 06:48:53;;;;;;;;;14.50;13.00;;;;;26.69;37.88;100894.03;5015696;28;47371;-51
2022/08/25 06:51:19;;;;;;;;;12.75;12.75;;;;;26.69;37.52;100894.03;5015665;28;45407;-49
2022/08/25 06:53:48;;;;;;;;;12.00;12.00;;;;;26.70;37.59;100905.53;5033779;28;45426;-49
2022/08/25 06:56:14;;;;;;;;;10.75;10.75;;;;;26.69;37.39;100898.53;5035866;28;45435;-52
2022/08/25 06:58:40;;;;;;;;;14.00;11.50;;;;;26.69;37.39;100903.84;5035688;28;46303;-49
2022/08/25 07:01:14;;;;;;;;;11.75;11.75;;;;;26.68;37.28;100902.97;5035396;28;45199;-49
2022/08/25 07:03:40;;;;;;;;;15.50;13.50;;;;;26.69;37.09;100904.66;5032522;28;45368;-50
2022/08/25 07:06:06;;;;;;;;;10.25;10.25;;;;;26.71;36.95;100904.56;5035875;28;45569;-48
2022/08/25 07:08:32;;;;;;;;;13.00;10.25;;;;;26.69;37.41;100904.66;5035679;28;45736;-52
2022/08/25 07:11:02;;;;;;;;;11.00;10.25;;;;;26.70;37.08;100909.03;5035499;28;45170;-48
2022/08/25 07:13:28;;;;;;;;;13.50;13.25;;;;;26.72;37.09;100908.06;5021651;28;45400;-48
2022/08/25 07:15:54;;;;;;;;;11.00;11.00;;;;;26.72;36.84;100902.75;5015996;28;45344;-50
2022/08/25 07:18:20;;;;;;;;;12.00;10.75;;;;;26.71;37.26;100899.25;5014582;28;45494;-49
2022/08/25 07:20:45;;;;;;;;;13.00;11.25;;;;;26.71;37.44;100901.91;5015040;28;45253;-52
2022/08/25 07:23:10;;;;;;;;;12.50;11.00;;;;;26.73;37.10;100913.28;5024170;28;55039;-51
2022/08/25 07:25:36;;;;;;;;;14.25;11.25;;;;;26.73;37.18;100907.09;5033917;28;45418;-48
2022/08/25 07:28:03;;;;;;;;;14.25;13.50;;;;;26.74;36.72;100908.78;5034513;28;46013;-50
2022/08/25 07:30:28;;;;;;;;;18.75;13.00;;;;;26.74;37.33;100911.44;5034700;28;45910;-51
2022/08/25 07:32:53;;;;;;;;;11.25;11.25;;;;;26.72;36.83;100914.22;5028862;28;45300;-49
2022/08/25 07:35:22;;;;;;;;;12.75;11.25;;;;;26.73;37.15;100918.59;5015110;28;45352;-50
2022/08/25 07:37:56;;;;;;;;;9.50;9.50;;;;;26.72;36.73;100906.25;5015099;28;47349;-52
2022/08/25 07:40:28;;;;;;;;;11.50;11.50;;;;;26.73;37.01;100910.59;5015687;28;45420;-54
2022/08/25 07:42:56;;;;;;;;;13.75;12.50;;;;;26.74;36.82;100914.94;5015764;28;45479;-50
2022/08/25 07:45:29;;;;;;;;;9.75;9.75;;;;;26.74;36.89;100917.59;5015049;28;45442;-52
2022/08/25 07:47:58;;;;;;;;;12.50;11.00;;;;;26.75;36.90;100907.81;5015325;28;46526;-51
2022/08/25 07:50:24;;;;;;;;;10.75;10.75;;;;;26.77;37.02;100905.88;5015559;28;45775;-53
2022/08/25 07:52:50;;;;;;;;;10.25;7.50;;;;;26.76;37.05;100905.03;5033901;28;45256;-52
2022/08/25 07:55:15;;;;;;;;;11.75;11.00;;;;;26.77;36.96;100904.06;5034560;28;45356;-48
2022/08/25 07:57:41;;;;;;;;;14.25;13.00;;;;;26.79;36.94;100904.81;5031786;28;45998;-50
2022/08/25 08:00:09;;;;;;;;;17.50;15.25;;;;;26.80;36.93;100895.88;5014539;28;46167;-48
2022/08/25 08:02:37;;;;;;;;;13.25;13.25;;;;;26.81;37.06;100894.91;5013285;28;45501;-52
2022/08/25 08:05:03;;;;;;;;;11.75;11.75;;;;;26.84;36.80;100896.47;5018842;28;45609;-49
2022/08/25 08:07:28;;;;;;;;;14.75;11.00;;;;;26.87;36.91;100895.34;5036366;28;45498;-48
2022/08/25 08:09:54;;;;;;;;;11.00;10.25;;;;;26.87;36.63;100896.22;5034599;28;45414;-49
2022/08/25 08:12:20;;;;;;;;;13.00;12.75;;;;;26.88;36.88;100891.72;5023681;28;45431;-52
2022/08/25 08:14:45;;;;;;;;;13.25;12.00;;;;;26.89;36.33;100893.41;5034939;28;45290;-54
2022/08/25 08:17:11;;;;;;;;;11.25;10.75;;;;;26.90;36.66;100889.78;5031519;28;45437;-59
2022/08/25 08:19:36;;;;;;;;;12.25;12.25;;;;;26.92;36.64;100901.16;5028973;28;45374;-60
2022/08/25 08:22:04;;;;;;;;;10.50;10.50;;;;;26.94;36.93;100905.38;5017815;28;45609;-58
2022/08/25 08:24:31;;;;;;;;;13.50;11.25;;;;;26.95;36.58;100909.72;5016671;28;45419;-58
2022/08/25 08:26:57;;;;;;;;;10.00;10.00;;;;;26.96;37.18;100905.22;5034460;28;46175;-57
2022/08/25 08:29:23;;;;;;;;;15.25;12.50;;;;;26.97;36.99;100918.44;5034984;28;45442;-57
2022/08/25 08:31:48;;;;;;;;;15.00;13.00;;;;;26.97;37.10;100942.38;5033856;28;45228;-58
2022/08/25 08:34:14;;;;;;;;;14.25;11.00;;;;;26.98;37.50;100935.22;5034195;28;45450;-59
2022/08/25 17:32:30;;;;;;;;;2.00;2.00;;;;;27.92;41.82;100942.56;5018750;28;45719;-51
2022/08/25 17:34:55;;;;;;;;;3.00;3.00;;;;;27.93;42.03;100949.56;5029763;28;45573;-50
2022/08/25 17:37:21;;;;;;;;;1.00;1.00;;;;;27.94;41.84;100948.59;5033420;28;45496;-48
2022/08/25 17:39:46;;;;;;;;;2.25;1.00;;;;;27.95;41.92;100968.91;5033530;28;45553;-52
2022/08/25 17:42:12;;;;;;;;;1.00;1.00;;;;;27.97;42.04;100947.50;5031987;28;46913;-48
2022/08/25 17:44:37;;;;;;;;;2.75;1.00;;;;;27.94;41.93;100956.59;5033240;28;45347;-50
2022/08/25 17:47:03;;;;;;;;;1.00;1.00;;;;;27.97;41.85;100966.97;5032857;28;45347;-49
2022/08/25 17:49:28;;;;;;;;;1.00;1.00;;;;;27.97;41.57;100969.63;5031810;28;45598;-54
2022/08/25 17:51:53;;;;;;;;;2.75;1.00;;;;;27.96;41.73;100967.94;5031657;28;46490;-50
2022/08/25 17:54:19;;;;;;;;;2.00;1.00;;;;;27.97;41.63;100979.47;5033561;28;45385;-51
2022/08/25 17:56:44;;;;;;;;;1.00;1.00;;;;;27.97;41.96;100988.28;5033362;28;45540;-52
2022/08/25 17:59:10;;;;;;;;;4.00;1.00;;;;;27.95;41.73;100979.56;5032814;28;45436;-50
2022/08/25 18:01:36;;;;;;;;;2.00;2.00;;;;;27.95;41.81;100992.88;5031749;28;46240;-50
2022/08/25 18:04:04;;;;;;;;;6.00;2.00;;;;;27.96;41.92;100999.06;5032612;28;45990;-46
2022/08/25 18:06:29;;;;;;;;;3.00;1.50;;;;;27.94;42.43;100999.22;5022621;28;45417;-47
2022/08/25 18:08:56;;;;;;;;;2.00;1.00;;;;;27.94;42.24;101004.53;5022384;28;45529;-49
2022/08/25 18:11:25;;;;;;;;;2.00;2.00;;;;;27.92;42.26;100999.31;5033166;28;46094;-49
2022/08/25 18:13:52;;;;;;;;;2.25;1.00;;;;;27.92;42.64;100994.00;5033554;28;45464;-48
2022/08/25 18:16:18;;;;;;;;;1.75;1.75;;;;;27.91;42.71;101002.13;5024475;28;45538;-46
2022/08/25 18:18:43;;;;;;;;;2.00;1.00;;;;;27.90;42.70;101000.44;5013078;28;45637;-52
2022/08/25 18:21:12;;;;;;;;;1.50;1.00;;;;;27.89;42.33;101004.06;5027334;28;47308;-49
2022/08/25 18:23:37;;;;;;;;;2.00;2.00;;;;;27.89;42.34;100998.75;5021360;28;45771;-51
2022/08/25 18:26:02;;;;;;;;;1.25;1.25;;;;;27.87;42.28;101019.34;5026901;28;45517;-57
2022/08/25 18:28:28;;;;;;;;;1.50;1.50;;;;;27.86;42.55;101007.00;5012702;28;45585;-51
2022/08/25 18:30:54;;;;;;;;;2.00;2.00;;;;;27.85;42.41;101015.94;5022822;28;45762;-49
2022/08/25 18:33:19;;;;;;;;;3.00;3.00;;;;;27.83;42.31;101024.09;5032130;28;45505;-48
2022/08/25 18:35:45;;;;;;;;;3.00;2.00;;;;;27.82;42.18;101026.88;5030160;28;45411;-50
2022/08/25 18:41:01;;;;;;;;;1.25;1.00;;;;;27.78;42.53;101020.97;5035095;28;45370;-53
2022/08/25 18:44:10;;;;;;;;;3.00;3.00;;;;;27.77;42.58;101033.44;5034660;28;45343;-50
2022/08/25 18:46:57;;;;;;;;;2.50;2.00;;;;;27.74;42.58;101036.34;5034437;28;45401;-47
2022/08/25 18:49:22;;;;;;;;;2.00;2.00;;;;;27.73;42.79;101037.31;5037259;28;45409;-52
2022/08/25 18:51:48;;;;;;;;;2.25;2.00;;;;;27.72;42.66;101024.13;5036712;28;46080;-47
2022/08/25 18:54:16;;;;;;;;;1.00;1.00;;;;;27.70;42.83;101034.94;5035748;28;45311;-54
2022/08/25 18:56:41;;;;;;;;;2.00;2.00;;;;;27.70;42.74;101042.91;5035218;28;45426;-49
2022/08/25 18:59:07;;;;;;;;;2.75;2.75;;;;;27.69;42.74;101035.91;5035592;28;46166;-50
2022/08/25 19:01:34;;;;;;;;;2.00;2.00;;;;;27.67;42.97;101037.84;5036048;28;45438;-50
2022/08/25 19:04:00;;;;;;;;;1.25;1.25;;;;;27.68;42.89;101054.63;5035580;28;45231;-51
2022/08/25 19:06:27;;;;;;;;;1.75;1.75;;;;;27.68;43.19;101059.97;5033762;28;45499;-49
2022/08/25 19:08:52;;;;;;;;;3.75;2.00;;;;;27.68;42.90;101060.81;5036142;28;45347;-51
2022/08/25 19:11:18;;;;;;;;;2.00;1.75;;;;;27.65;42.77;101066.41;5032492;28;47012;-51
2022/08/25 19:13:43;;;;;;;;;2.00;2.00;;;;;27.64;42.86;101074.53;5035988;28;45312;-52
2022/08/25 19:16:14;;;;;;;;;2.00;1.00;;;;;27.59;43.20;101066.91;5034564;28;45761;-54
2022/08/25 19:18:40;;;;;;;;;2.00;2.00;;;;;27.55;43.19;101065.47;5035013;28;45632;-54
2022/08/25 19:21:06;;;;;;;;;2.75;2.00;;;;;27.53;43.46;101078.06;5026032;28;47543;-51
2022/08/25 19:23:31;;;;;;;;;2.00;2.00;;;;;27.48;43.50;101074.94;5016480;28;45411;-49
2022/08/25 19:25:58;;;;;;;;;2.75;2.75;;;;;27.44;43.65;101079.66;5016172;28;45419;-51
2022/08/25 19:28:24;;;;;;;;;3.75;2.00;;;;;27.41;43.79;101071.91;5016708;28;45637;-50
2022/08/25 19:30:50;;;;;;;;;5.00;2.00;;;;;27.38;43.68;101086.31;5020493;28;45430;-55
2022/08/25 19:33:17;;;;;;;;;1.25;1.25;;;;;27.36;44.26;101082.91;5025851;28;45189;-53
2022/08/25 19:35:47;;;;;;;;;1.25;1.25;;;;;27.36;43.87;101093.56;5015673;28;45362;-52
2022/08/25 19:38:18;;;;;;;;;2.00;2.00;;;;;27.36;44.00;101109.53;5034963;28;45641;-49
2022/08/25 19:40:44;;;;;;;;;2.00;2.00;;;;;27.36;44.34;101100.69;5034899;28;45395;-53
2022/08/25 19:43:10;;;;;;;;;1.75;1.75;;;;;27.35;44.04;101105.19;5027001;28;45481;-51
2022/08/25 19:45:35;;;;;;;;;3.75;2.00;;;;;27.36;43.85;101111.34;5015633;28;45368;-54
2022/08/25 19:48:01;;;;;;;;;2.50;1.00;;;;;27.35;43.90;101118.47;5015372;28;45506;-51
2022/08/25 19:50:27;;;;;;;;;3.00;2.00;;;;;27.35;43.70;101122.94;5015146;28;45820;-52
2022/08/25 19:52:53;;;;;;;;;2.00;1.00;;;;;27.36;44.01;101114.00;5035921;28;45577;-51
2022/08/25 19:55:19;;;;;;;;;3.25;2.00;;;;;27.31;43.93;101117.03;5035068;28;45443;-52
2022/08/25 19:57:45;;;;;;;;;2.00;2.00;;;;;27.26;44.09;101113.91;5035780;28;45925;-52
2022/08/25 20:00:18;;;;;;;;;1.00;1.00;;;;;27.20;43.85;101119.69;5015235;28;45788;-55
2022/08/25 20:02:44;;;;;;;;;1.00;1.00;;;;;27.13;44.23;101128.19;5015131;28;45498;-55
2022/08/25 20:05:11;;;;;;;;;2.00;2.00;;;;;27.10;44.03;101135.56;5014925;28;45373;-53
2022/08/25 20:07:37;;;;;;;;;3.00;1.00;;;;;27.06;44.28;101132.31;5030718;28;45257;-50
2022/08/25 20:10:05;;;;;;;;;1.75;0.75;;;;;27.03;43.94;101139.66;5015622;28;46090;-50
2022/08/25 20:12:31;;;;;;;;;1.00;1.00;;;;;27.01;44.20;101150.44;5016174;28;45765;-48
2022/08/25 20:14:56;;;;;;;;;0.75;0.75;;;;;27.00;43.71;101154.06;5033645;28;45499;-51
2022/08/25 20:17:23;;;;;;;;;0.00;0.00;;;;;26.95;42.98;101157.06;5035888;28;45543;-49
2022/08/25 20:19:48;;;;;;;;;2.00;0.00;;;;;26.90;42.98;101166.38;5034064;28;46603;-50